Time,TemperatureF,DewpointF,PressureIn,WindDirection,WindDirectionDegrees,WindSpeedMPH,WindSpeedGustMPH,Humidity,HourlyPrecipIn,Conditions,Clouds,dailyrainin,SoftwareType,DateUTC
2013-03-05 00:33:00,25.7,18.6,29.81,North,0,0.0,0.0,74,0.00,CLR,,0.00,WeatherDisplay:10.37,2013-03-05 08:33:00,
2013-03-05 00:38:00,27.9,16.1,29.61,NNE,22,0.0,0.0,61,0.00,CLR,,0.00,WeatherDisplay:10.37,2013-03-05 08:38:00,
2013-03-05 00:43:00,27.7,16.0,29.61,NE,45,0.1,0.0,61,0.00,CLR,,0.00,WeatherDisplay:10.37,2013-03-05 08:43:00,
2013-03-05 00:48:00,27.5,16.2,29.61,ENE,68,0.1,0.0,62,0.00,CLR,,0.00,WeatherDisplay:10.37,2013-03-05 08:48:00,
2013-03-05 00:49:00,27.5,16.2,29.61,ENE,68,0.1,0.0,62,0.00,CLR,,0.00,WeatherDisplay:10.37,2013-03-05 08:49:00,
2013-03-05 00:53:00,27.3,15.6,29.61,NNW,338,0.0,0.0,61,0.00,CLR,,0.00,WeatherDisplay:10.37,2013-03-05 08:53:00,
2013-03-05 00:54:00,27.3,15.6,29.61,NNW,338,0.0,0.0,61,0.00,CLR,,0.00,WeatherDisplay:10.37,2013-03-05 08:54:00,
2013-03-05 00:58:00,27.1,15.8,29.61,East,90,0.0,0.0,62,0.00,CLR,,0.00,WeatherDisplay:10.37,2013-03-05 08:58:00,
2013-03-05 00:59:00,27.1,15.8,29.61,East,90,0.0,0.0,62,0.00,CLR,,0.00,WeatherDisplay:10.37,2013-03-05 08:59:00,
2013-03-05 01:03:00,26.8,15.1,29.61,ENE,68,0.0,0.0,61,0.00,CLR,,0.00,WeatherDisplay:10.37,2013-03-05 09:03:00,
2013-03-05 01:04:00,26.8,15.1,29.61,ENE,68,0.0,0.0,61,0.00,CLR,,0.00,WeatherDisplay:10.37,2013-03-05 09:04:00,
2013-03-05 01:09:00,26.8,15.5,29.61,SSE,158,0.0,0.0,62,0.00,CLR,,0.00,WeatherDisplay:10.37,2013-03-05 09:09:00,
2013-03-05 01:14:00,26.6,15.3,29.61,SE,135,0.0,0.0,62,0.00,CLR,,0.00,WeatherDisplay:10.37,2013-03-05 09:14:00,
2013-03-05 01:19:00,26.2,15.3,29.61,NE,45,0.0,0.0,63,0.00,CLR,,0.00,WeatherDisplay:10.37,2013-03-05 09:19:00,
2013-03-05 01:20:00,26.3,15.4,29.61,NNE,17,0.0,0.0,63,0.00,CLR,CLR,0.00,WeatherDisplay:10.37,2013-03-05 09:20:00,
2013-03-05 01:24:00,26.2,15.7,29.62,ESE,112,0.0,0.0,64,0.00,CLR,,0.00,WeatherDisplay:10.37,2013-03-05 09:24:00,
2013-03-05 01:25:00,26.2,15.7,29.62,ENE,68,0.0,0.0,64,0.00,CLR,CLR,0.00,WeatherDisplay:10.37,2013-03-05 09:25:00,
2013-03-05 01:29:00,25.9,15.4,29.62,NNE,22,0.0,0.0,64,0.00,CLR,,0.00,WeatherDisplay:10.37,2013-03-05 09:29:00,
2013-03-05 01:30:00,25.9,15.4,29.62,East,88,0.0,0.0,64,0.00,CLR,CLR,0.00,WeatherDisplay:10.37,2013-03-05 09:30:00,
2013-03-05 01:34:00,25.7,15.2,29.62,ESE,112,0.0,0.0,64,0.00,CLR,,0.00,WeatherDisplay:10.37,2013-03-05 09:34:00,
2013-03-05 01:35:00,25.7,15.2,29.62,ESE,112,0.0,0.0,64,0.00,CLR,,0.00,WeatherDisplay:10.37,2013-03-05 09:35:00,
2013-03-05 01:40:00,25.7,15.6,29.62,ENE,68,0.0,0.0,65,0.00,CLR,,0.00,WeatherDisplay:10.37,2013-03-05 09:40:00,
2013-03-05 01:45:00,25.9,15.7,29.63,NW,315,0.0,0.0,65,0.00,CLR,,0.00,WeatherDisplay:10.37,2013-03-05 09:45:00,
2013-03-05 01:46:00,25.7,15.6,29.63,NNW,338,0.0,0.0,65,0.00,CLR,,0.00,WeatherDisplay:10.37,2013-03-05 09:46:00,
2013-03-05 01:50:00,25.7,15.9,29.63,North,10,0.0,0.0,66,0.00,CLR,CLR,0.00,WeatherDisplay:10.37,2013-03-05 09:50:00,
2013-03-05 01:51:00,25.7,15.9,29.63,NE,45,0.0,0.0,66,0.00,CLR,,0.00,WeatherDisplay:10.37,2013-03-05 09:51:00,
2013-03-05 01:55:00,25.5,15.4,29.63,NNE,22,0.0,0.0,65,0.00,CLR,,0.00,WeatherDisplay:10.37,2013-03-05 09:55:00,
2013-03-05 01:56:00,25.5,15.4,29.63,NNE,22,0.0,0.0,65,0.00,CLR,,0.00,WeatherDisplay:10.37,2013-03-05 09:56:00,
2013-03-05 02:00:00,25.5,15.4,29.63,NNW,338,0.0,0.0,65,0.00,CLR,,0.00,WeatherDisplay:10.37,2013-03-05 10:00:00,
2013-03-05 02:01:00,25.3,15.2,29.63,NNE,22,0.0,0.0,65,0.00,CLR,,0.00,WeatherDisplay:10.37,2013-03-05 10:01:00,
2013-03-05 02:05:00,25.3,15.2,29.60,East,90,0.0,0.0,65,0.00,CLR,,0.00,WeatherDisplay:10.37,2013-03-05 10:05:00,
2013-03-05 02:06:00,25.3,15.2,29.60,East,90,0.0,0.0,65,0.00,CLR,,0.00,WeatherDisplay:10.37,2013-03-05 10:06:00,
2013-03-05 02:10:00,25.5,15.7,29.60,North,0,0.0,0.0,66,0.00,CLR,,0.00,WeatherDisplay:10.37,2013-03-05 10:10:00,
2013-03-05 02:11:00,25.5,15.7,29.60,North,0,0.0,0.0,66,0.00,CLR,,0.00,WeatherDisplay:10.37,2013-03-05 10:11:00,
2013-03-05 02:12:00,25.3,15.6,29.60,NW,315,0.0,0.0,66,0.00,CLR,,0.00,WeatherDisplay:10.37,2013-03-05 10:12:00,
2013-03-05 02:15:00,25.2,15.4,29.60,NE,45,0.0,0.0,66,0.00,CLR,,0.00,WeatherDisplay:10.37,2013-03-05 10:15:00,
2013-03-05 02:16:00,25.2,15.4,29.60,NE,45,0.0,0.0,66,0.00,CLR,,0.00,WeatherDisplay:10.37,2013-03-05 10:16:00,
2013-03-05 02:17:00,25.2,15.4,29.60,NE,45,0.0,0.0,66,0.00,CLR,,0.00,WeatherDisplay:10.37,2013-03-05 10:17:00,
2013-03-05 02:20:00,25.0,14.9,29.60,ESE,112,0.0,0.0,65,0.00,CLR,,0.00,WeatherDisplay:10.37,2013-03-05 10:20:00,
2013-03-05 02:21:00,25.0,14.9,29.60,ESE,112,0.0,0.0,65,0.00,CLR,,0.00,WeatherDisplay:10.37,2013-03-05 10:21:00,
2013-03-05 02:22:00,24.8,14.7,29.60,ENE,68,0.0,0.0,65,0.00,CLR,,0.00,WeatherDisplay:10.37,2013-03-05 10:22:00,
2013-03-05 04:36:00,24.8,14.7,29.60,North,0,0.0,0.0,65,0.00,CLR,,0.00,WeatherDisplay:10.37,2013-03-05 12:36:00,
2013-03-05 04:41:00,24.8,14.7,29.60,North,0,0.0,0.0,65,0.00,CLR,,0.00,WeatherDisplay:10.37,2013-03-05 12:41:00,
2013-03-05 04:42:00,24.8,14.7,29.60,North,0,0.0,0.0,65,0.00,CLR,,0.00,WeatherDisplay:10.37,2013-03-05 12:42:00,
2013-03-05 04:46:00,24.8,14.7,29.60,North,0,0.0,0.0,65,0.00,CLR,,0.00,WeatherDisplay:10.37,2013-03-05 12:46:00,
2013-03-05 04:47:00,24.8,14.7,29.60,North,0,0.0,0.0,65,0.00,CLR,,0.00,WeatherDisplay:10.37,2013-03-05 12:47:00,
2013-03-05 04:51:00,24.8,14.7,29.60,North,0,0.0,0.0,65,0.00,CLR,,0.00,WeatherDisplay:10.37,2013-03-05 12:51:00,
2013-03-05 04:52:00,24.8,14.7,29.60,North,0,0.0,0.0,65,0.00,CLR,,0.00,WeatherDisplay:10.37,2013-03-05 12:52:00,
2013-03-05 04:56:00,24.8,14.7,29.60,North,0,0.0,0.0,65,0.00,CLR,,0.00,WeatherDisplay:10.37,2013-03-05 12:56:00,
2013-03-05 04:57:00,24.8,14.7,29.60,North,0,0.0,0.0,65,0.00,CLR,,0.00,WeatherDisplay:10.37,2013-03-05 12:57:00,
2013-03-05 05:02:00,24.8,14.7,29.60,North,0,0.0,0.0,65,0.00,CLR,,0.00,WeatherDisplay:10.37,2013-03-05 13:02:00,
2013-03-05 05:07:00,24.8,14.7,29.60,North,0,0.0,0.0,65,0.00,CLR,,0.00,WeatherDisplay:10.37,2013-03-05 13:07:00,
2013-03-05 05:12:00,24.8,14.7,29.60,North,0,0.0,0.0,65,0.00,CLR,,0.00,WeatherDisplay:10.37,2013-03-05 13:12:00,
2013-03-05 05:17:00,24.8,14.7,29.60,North,0,0.0,0.0,65,0.00,CLR,,0.00,WeatherDisplay:10.37,2013-03-05 13:17:00,
2013-03-05 05:22:00,24.8,14.7,29.60,North,0,0.0,0.0,65,0.00,CLR,,0.00,WeatherDisplay:10.37,2013-03-05 13:22:00,
2013-03-05 05:27:00,24.8,14.7,29.60,North,0,0.0,0.0,65,0.00,CLR,,0.00,WeatherDisplay:10.37,2013-03-05 13:27:00,
2013-03-05 05:28:00,24.8,14.7,29.60,North,0,0.0,0.0,65,0.00,CLR,,0.00,WeatherDisplay:10.37,2013-03-05 13:28:00,
2013-03-05 05:32:00,24.8,14.7,29.60,North,0,0.0,0.0,65,0.00,CLR,,0.00,WeatherDisplay:10.37,2013-03-05 13:32:00,
2013-03-05 05:33:00,24.8,14.7,29.60,North,0,0.0,0.0,65,0.00,CLR,,0.00,WeatherDisplay:10.37,2013-03-05 13:33:00,
2013-03-05 05:37:00,24.8,14.7,29.60,North,0,0.0,0.0,65,0.00,CLR,,0.00,WeatherDisplay:10.37,2013-03-05 13:37:00,
2013-03-05 05:38:00,24.8,14.7,29.60,North,0,0.0,0.0,65,0.00,CLR,,0.00,WeatherDisplay:10.37,2013-03-05 13:38:00,
2013-03-05 07:23:00,24.8,14.7,29.60,North,0,0.0,0.0,65,0.00,CLR,,0.00,WeatherDisplay:10.37,2013-03-05 15:23:00,
2013-03-05 07:28:00,24.8,14.7,29.60,North,0,0.0,0.0,65,0.00,CLR,,0.00,WeatherDisplay:10.37,2013-03-05 15:28:00,
2013-03-05 07:29:00,24.8,14.7,29.60,North,0,0.0,0.0,65,0.00,CLR,,0.00,WeatherDisplay:10.37,2013-03-05 15:29:00,
2013-03-05 07:33:00,24.8,14.7,29.60,North,0,0.0,0.0,65,0.00,CLR,,0.00,WeatherDisplay:10.37,2013-03-05 15:33:00,
2013-03-05 07:34:00,24.8,14.7,29.60,North,0,0.0,0.0,65,0.00,CLR,,0.00,WeatherDisplay:10.37,2013-03-05 15:34:00,
2013-03-05 07:38:00,24.8,14.7,29.60,North,0,0.0,0.0,65,0.00,CLR,,0.00,WeatherDisplay:10.37,2013-03-05 15:38:00,
2013-03-05 07:39:00,24.8,14.7,29.60,North,0,0.0,0.0,65,0.00,CLR,,0.00,WeatherDisplay:10.37,2013-03-05 15:39:00,
2013-03-05 07:43:00,24.8,14.7,29.60,North,0,0.0,0.0,65,0.00,CLR,,0.00,WeatherDisplay:10.37,2013-03-05 15:43:00,
2013-03-05 07:44:00,24.8,14.7,29.60,North,0,0.0,0.0,65,0.00,CLR,,0.00,WeatherDisplay:10.37,2013-03-05 15:44:00,
2013-03-05 07:45:00,24.8,14.7,29.60,North,0,0.0,0.0,65,0.00,CLR,,0.00,WeatherDisplay:10.37,2013-03-05 15:45:00,
2013-03-05 07:49:00,24.8,14.7,29.60,North,0,0.0,0.0,65,0.00,CLR,,0.00,WeatherDisplay:10.37,2013-03-05 15:49:00,
2013-03-05 07:50:00,24.8,14.7,29.60,North,0,0.0,0.0,65,0.00,CLR,,0.00,WeatherDisplay:10.37,2013-03-05 15:50:00,
2013-03-05 07:54:00,24.8,14.7,29.60,North,0,0.0,0.0,65,0.00,CLR,,0.00,WeatherDisplay:10.37,2013-03-05 15:54:00,
2013-03-05 07:55:00,24.8,14.7,29.60,North,0,0.0,0.0,65,0.00,CLR,CLR,0.00,WeatherDisplay:10.37,2013-03-05 15:55:00,
2013-03-05 07:56:00,24.8,14.7,29.60,North,0,0.0,0.0,65,0.00,CLR,,0.00,WeatherDisplay:10.37,2013-03-05 15:56:00,
2013-03-05 07:59:00,24.8,14.7,29.60,North,0,0.0,0.0,65,0.00,CLR,,0.00,WeatherDisplay:10.37,2013-03-05 15:59:00,
2013-03-05 08:00:00,24.8,14.7,29.60,North,0,0.0,0.0,65,0.00,CLR,CLR,0.00,WeatherDisplay:10.37,2013-03-05 16:00:00,
2013-03-05 08:01:00,24.8,14.7,29.60,North,0,0.0,0.0,65,0.00,CLR,,0.00,WeatherDisplay:10.37,2013-03-05 16:01:00,
2013-03-05 08:04:00,24.8,14.7,29.60,North,0,0.0,0.0,65,0.00,CLR,,0.00,WeatherDisplay:10.37,2013-03-05 16:04:00,
2013-03-05 08:05:00,24.8,14.7,29.60,North,0,0.0,0.0,65,0.00,CLR,,0.00,WeatherDisplay:10.37,2013-03-05 16:05:00,
2013-03-05 08:06:00,24.8,14.7,29.60,North,0,0.0,0.0,65,0.00,CLR,,0.00,WeatherDisplay:10.37,2013-03-05 16:06:00,
2013-03-05 08:09:00,24.8,14.7,29.60,North,0,0.0,0.0,65,0.00,CLR,,0.00,WeatherDisplay:10.37,2013-03-05 16:09:00,
2013-03-05 08:10:00,24.8,14.7,29.60,North,0,0.0,0.0,65,0.00,CLR,,0.00,WeatherDisplay:10.37,2013-03-05 16:10:00,
2013-03-05 08:11:00,24.8,14.7,29.60,North,0,0.0,0.0,65,0.00,CLR,,0.00,WeatherDisplay:10.37,2013-03-05 16:11:00,
2013-03-05 08:14:00,24.8,14.7,29.60,North,0,0.0,0.0,65,0.00,CLR,,0.00,WeatherDisplay:10.37,2013-03-05 16:14:00,
2013-03-05 08:15:00,24.8,14.7,29.60,North,0,0.0,0.0,65,0.00,CLR,,0.00,WeatherDisplay:10.37,2013-03-05 16:15:00,
2013-03-05 08:16:00,24.8,14.7,29.60,North,0,0.0,0.0,65,0.00,CLR,,0.00,WeatherDisplay:10.37,2013-03-05 16:16:00,
2013-03-05 08:19:00,24.8,14.7,29.60,North,0,0.0,0.0,65,0.00,CLR,,0.00,WeatherDisplay:10.37,2013-03-05 16:19:00,
2013-03-05 08:20:00,24.8,14.7,29.60,North,0,0.0,0.0,65,0.00,CLR,,0.00,WeatherDisplay:10.37,2013-03-05 16:20:00,
2013-03-05 08:21:00,24.8,14.7,29.60,North,0,0.0,0.0,65,0.00,CLR,,0.00,WeatherDisplay:10.37,2013-03-05 16:21:00,
2013-03-05 08:24:00,24.8,14.7,29.60,North,0,0.0,0.0,65,0.00,CLR,,0.00,WeatherDisplay:10.37,2013-03-05 16:24:00,
2013-03-05 08:25:00,24.8,14.7,29.60,North,0,0.0,0.0,65,0.00,CLR,,0.00,WeatherDisplay:10.37,2013-03-05 16:25:00,
2013-03-05 08:26:00,24.8,14.7,29.60,North,0,0.0,0.0,65,0.00,CLR,,0.00,WeatherDisplay:10.37,2013-03-05 16:26:00,
2013-03-05 08:29:00,24.8,14.7,29.60,North,0,0.0,0.0,65,0.00,CLR,,0.00,WeatherDisplay:10.37,2013-03-05 16:29:00,
2013-03-05 08:30:00,24.8,14.7,29.60,North,0,0.0,0.0,65,0.00,CLR,,0.00,WeatherDisplay:10.37,2013-03-05 16:30:00,
2013-03-05 08:31:00,24.8,14.7,29.60,North,0,0.0,0.0,65,0.00,CLR,,0.00,WeatherDisplay:10.37,2013-03-05 16:31:00,
2013-03-05 08:34:00,24.8,14.7,29.60,North,0,0.0,0.0,65,0.00,CLR,,0.00,WeatherDisplay:10.37,2013-03-05 16:34:00,
2013-03-05 08:35:00,24.8,14.7,29.60,North,0,0.0,0.0,65,0.00,CLR,,0.00,WeatherDisplay:10.37,2013-03-05 16:35:00,
2013-03-05 08:37:00,24.8,14.7,29.60,North,0,0.0,0.0,65,0.00,CLR,,0.00,WeatherDisplay:10.37,2013-03-05 16:37:00,
2013-03-05 08:39:00,24.8,14.7,29.60,North,0,0.0,0.0,65,0.00,CLR,,0.00,WeatherDisplay:10.37,2013-03-05 16:39:00,
2013-03-05 08:40:00,24.8,14.7,29.60,North,0,0.0,0.0,65,0.00,CLR,,0.00,WeatherDisplay:10.37,2013-03-05 16:40:00,
2013-03-05 08:42:00,24.8,14.7,29.60,North,0,0.0,0.0,65,0.00,CLR,,0.00,WeatherDisplay:10.37,2013-03-05 16:42:00,
2013-03-05 08:44:00,24.8,14.7,29.60,North,0,0.0,0.0,65,0.00,CLR,,0.00,WeatherDisplay:10.37,2013-03-05 16:44:00,
2013-03-05 08:45:00,24.8,14.7,29.60,North,0,0.0,0.0,65,0.00,CLR,,0.00,WeatherDisplay:10.37,2013-03-05 16:45:00,
2013-03-05 08:46:00,24.8,14.7,29.60,North,0,0.0,0.0,65,0.00,CLR,,0.00,WeatherDisplay:10.37,2013-03-05 16:46:00,
2013-03-05 08:47:00,24.8,14.7,29.60,North,0,0.0,0.0,65,0.00,CLR,,0.00,WeatherDisplay:10.37,2013-03-05 16:47:00,
2013-03-05 08:49:00,24.8,14.7,29.60,North,0,0.0,0.0,65,0.00,CLR,,0.00,WeatherDisplay:10.37,2013-03-05 16:49:00,
2013-03-05 08:50:00,24.8,14.7,29.60,North,0,0.0,0.0,65,0.00,CLR,,0.00,WeatherDisplay:10.37,2013-03-05 16:50:00,
2013-03-05 08:51:00,24.8,14.7,29.60,North,0,0.0,0.0,65,0.00,CLR,,0.00,WeatherDisplay:10.37,2013-03-05 16:51:00,
2013-03-05 08:52:00,24.8,14.7,29.60,North,0,0.0,0.0,65,0.00,CLR,,0.00,WeatherDisplay:10.37,2013-03-05 16:52:00,
2013-03-05 08:54:00,24.8,14.7,29.60,North,0,0.0,0.0,65,0.00,CLR,,0.00,WeatherDisplay:10.37,2013-03-05 16:54:00,
2013-03-05 08:55:00,24.8,14.7,29.60,North,0,0.0,0.0,65,0.00,CLR,,0.00,WeatherDisplay:10.37,2013-03-05 16:55:00,
2013-03-05 08:56:00,24.8,14.7,29.60,North,0,0.0,0.0,65,0.00,CLR,,0.00,WeatherDisplay:10.37,2013-03-05 16:56:00,
2013-03-05 08:57:00,24.8,14.7,29.60,North,0,0.0,0.0,65,0.00,CLR,,0.00,WeatherDisplay:10.37,2013-03-05 16:57:00,
2013-03-05 09:00:00,24.8,14.7,29.60,North,0,0.0,0.0,65,0.00,CLR,CLR,0.00,WeatherDisplay:10.37,2013-03-05 17:00:00,
2013-03-05 09:01:00,24.8,14.7,29.60,North,0,0.0,0.0,65,0.00,CLR,,0.00,WeatherDisplay:10.37,2013-03-05 17:01:00,
2013-03-05 09:02:00,24.8,14.7,29.60,North,0,0.0,0.0,65,0.00,CLR,,0.00,WeatherDisplay:10.37,2013-03-05 17:02:00,
2013-03-05 09:05:00,24.8,14.7,29.60,North,0,0.0,0.0,65,0.00,CLR,CLR,0.00,WeatherDisplay:10.37,2013-03-05 17:05:00,
2013-03-05 09:06:00,24.8,14.7,29.60,North,0,0.0,0.0,65,0.00,CLR,,0.00,WeatherDisplay:10.37,2013-03-05 17:06:00,
2013-03-05 09:07:00,24.8,14.7,29.60,North,0,0.0,0.0,65,0.00,CLR,,0.00,WeatherDisplay:10.37,2013-03-05 17:07:00,
2013-03-05 09:10:00,24.8,14.7,29.60,North,0,0.0,0.0,65,0.00,CLR,,0.00,WeatherDisplay:10.37,2013-03-05 17:10:00,
2013-03-05 09:11:00,24.8,14.7,29.60,North,0,0.0,0.0,65,0.00,CLR,,0.00,WeatherDisplay:10.37,2013-03-05 17:11:00,
2013-03-05 09:12:00,24.8,14.7,29.60,North,0,0.0,0.0,65,0.00,CLR,,0.00,WeatherDisplay:10.37,2013-03-05 17:12:00,
2013-03-05 09:15:00,24.8,14.7,29.60,North,0,0.0,0.0,65,0.00,CLR,,0.00,WeatherDisplay:10.37,2013-03-05 17:15:00,
2013-03-05 09:16:00,24.8,14.7,29.60,North,0,0.0,0.0,65,0.00,CLR,,0.00,WeatherDisplay:10.37,2013-03-05 17:16:00,
2013-03-05 09:18:00,24.8,14.7,29.60,North,0,0.0,0.0,65,0.00,CLR,,0.00,WeatherDisplay:10.37,2013-03-05 17:18:00,
2013-03-05 09:20:00,24.8,14.7,29.60,North,0,0.0,0.0,65,0.00,CLR,,0.00,WeatherDisplay:10.37,2013-03-05 17:20:00,
2013-03-05 09:21:00,24.8,14.7,29.60,North,0,0.0,0.0,65,0.00,CLR,,0.00,WeatherDisplay:10.37,2013-03-05 17:21:00,
2013-03-05 09:23:00,24.8,14.7,29.60,North,0,0.0,0.0,65,0.00,CLR,,0.00,WeatherDisplay:10.37,2013-03-05 17:23:00,
2013-03-05 09:25:00,24.8,14.7,29.60,North,0,0.0,0.0,65,0.00,CLR,,0.00,WeatherDisplay:10.37,2013-03-05 17:25:00,
2013-03-05 09:26:00,24.8,14.7,29.60,North,0,0.0,0.0,65,0.00,CLR,,0.00,WeatherDisplay:10.37,2013-03-05 17:26:00,
2013-03-05 09:28:00,24.8,14.7,29.60,North,0,0.0,0.0,65,0.00,CLR,,0.00,WeatherDisplay:10.37,2013-03-05 17:28:00,
2013-03-05 09:30:00,24.8,14.7,29.60,North,0,0.0,0.0,65,0.00,CLR,,0.00,WeatherDisplay:10.37,2013-03-05 17:30:00,
2013-03-05 09:31:00,24.8,14.7,29.60,North,0,0.0,0.0,65,0.00,CLR,,0.00,WeatherDisplay:10.37,2013-03-05 17:31:00,
2013-03-05 09:34:00,24.8,14.7,29.60,North,0,0.0,0.0,65,0.00,CLR,,0.00,WeatherDisplay:10.37,2013-03-05 17:34:00,
2013-03-05 09:35:00,24.8,14.7,29.60,North,0,0.0,0.0,65,0.00,CLR,,0.00,WeatherDisplay:10.37,2013-03-05 17:35:00,
2013-03-05 09:36:00,24.8,14.7,29.60,North,0,0.0,0.0,65,0.00,CLR,,0.00,WeatherDisplay:10.37,2013-03-05 17:36:00,
2013-03-05 09:37:00,24.8,14.7,29.60,North,0,0.0,0.0,65,0.00,CLR,,0.00,WeatherDisplay:10.37,2013-03-05 17:37:00,
2013-03-05 09:39:00,24.8,14.7,29.60,North,0,0.0,0.0,65,0.00,CLR,,0.00,WeatherDisplay:10.37,2013-03-05 17:39:00,
2013-03-05 09:40:00,32.0,27.4,29.34,SE,146,0.0,0.0,83,0.00,CLR,CLR,0.00,WeatherDisplay:10.37,2013-03-05 17:40:00,
2013-03-05 09:41:00,24.8,14.7,29.60,North,0,0.0,0.0,65,0.00,CLR,,0.00,WeatherDisplay:10.37,2013-03-05 17:41:00,
2013-03-05 09:42:00,24.8,14.7,29.60,North,0,0.0,0.0,65,0.00,CLR,,0.00,WeatherDisplay:10.37,2013-03-05 17:42:00,
2013-03-05 09:44:00,24.8,14.7,29.60,North,0,0.0,0.0,65,0.00,CLR,,0.00,WeatherDisplay:10.37,2013-03-05 17:44:00,
2013-03-05 09:45:00,32.0,27.4,29.33,SE,132,0.0,0.0,83,0.00,CLR,CLR,0.00,WeatherDisplay:10.37,2013-03-05 17:45:00,
2013-03-05 09:46:00,24.8,14.7,29.60,North,0,0.0,0.0,65,0.00,CLR,,0.00,WeatherDisplay:10.37,2013-03-05 17:46:00,
2013-03-05 09:47:00,24.8,14.7,29.60,North,0,0.0,0.0,65,0.00,CLR,,0.00,WeatherDisplay:10.37,2013-03-05 17:47:00,
2013-03-05 09:49:00,24.8,14.7,29.60,North,0,0.0,0.0,65,0.00,CLR,,0.00,WeatherDisplay:10.37,2013-03-05 17:49:00,
2013-03-05 09:50:00,32.0,27.4,29.33,SSE,151,0.0,0.0,83,0.00,CLR,CLR,0.00,WeatherDisplay:10.37,2013-03-05 17:50:00,
2013-03-05 09:51:00,24.8,14.7,29.60,North,0,0.0,0.0,65,0.00,CLR,,0.00,WeatherDisplay:10.37,2013-03-05 17:51:00,
2013-03-05 09:52:00,24.8,14.7,29.60,North,0,0.0,0.0,65,0.00,CLR,,0.00,WeatherDisplay:10.37,2013-03-05 17:52:00,
2013-03-05 09:53:00,24.8,14.7,29.60,North,0,0.0,0.0,65,0.00,CLR,,0.00,WeatherDisplay:10.37,2013-03-05 17:53:00,
2013-03-05 09:54:00,24.8,14.7,29.60,North,0,0.0,0.0,65,0.00,CLR,,0.00,WeatherDisplay:10.37,2013-03-05 17:54:00,
2013-03-05 09:55:00,32.0,27.4,29.33,SSW,194,0.0,0.0,83,0.00,CLR,CLR,0.00,WeatherDisplay:10.37,2013-03-05 17:55:00,
2013-03-05 09:56:00,24.8,14.7,29.60,North,0,0.0,0.0,65,0.00,CLR,,0.00,WeatherDisplay:10.37,2013-03-05 17:56:00,
2013-03-05 09:57:00,24.8,14.7,29.60,North,0,0.0,0.0,65,0.00,CLR,,0.00,WeatherDisplay:10.37,2013-03-05 17:57:00,
2013-03-05 09:58:00,24.8,14.7,29.60,North,0,0.0,0.0,65,0.00,CLR,,0.00,WeatherDisplay:10.37,2013-03-05 17:58:00,
2013-03-05 09:59:00,24.8,14.7,29.60,North,0,0.0,0.0,65,0.00,CLR,,0.00,WeatherDisplay:10.37,2013-03-05 17:59:00,
2013-03-05 10:00:00,32.0,27.4,29.33,WSW,246,0.0,0.0,83,0.00,CLR,CLR,0.00,WeatherDisplay:10.37,2013-03-05 18:00:00,
2013-03-05 10:01:00,24.8,14.7,29.60,North,0,0.0,0.0,65,0.00,CLR,,0.00,WeatherDisplay:10.37,2013-03-05 18:01:00,
2013-03-05 10:02:00,24.8,14.7,29.60,North,0,0.0,0.0,65,0.00,CLR,,0.00,WeatherDisplay:10.37,2013-03-05 18:02:00,
2013-03-05 10:03:00,24.8,14.7,29.60,North,0,0.0,0.0,65,0.00,CLR,,0.00,WeatherDisplay:10.37,2013-03-05 18:03:00,
2013-03-05 10:05:00,24.8,14.7,29.60,North,0,0.0,0.0,65,0.00,CLR,,0.00,WeatherDisplay:10.37,2013-03-05 18:05:00,
2013-03-05 10:06:00,24.8,14.7,29.60,North,0,0.0,0.0,65,0.00,CLR,,0.00,WeatherDisplay:10.37,2013-03-05 18:06:00,
2013-03-05 10:07:00,24.8,14.7,29.60,North,0,0.0,0.0,65,0.00,CLR,,0.00,WeatherDisplay:10.37,2013-03-05 18:07:00,
2013-03-05 10:08:00,24.8,14.7,29.60,North,0,0.0,0.0,65,0.00,CLR,,0.00,WeatherDisplay:10.37,2013-03-05 18:08:00,
2013-03-05 10:10:00,24.8,14.7,29.60,North,0,0.0,0.0,65,0.00,CLR,,0.00,WeatherDisplay:10.37,2013-03-05 18:10:00,
2013-03-05 10:11:00,24.8,14.7,29.60,North,0,0.0,0.0,65,0.00,CLR,,0.00,WeatherDisplay:10.37,2013-03-05 18:11:00,
2013-03-05 10:13:00,24.8,14.7,29.60,North,0,0.0,0.0,65,0.00,CLR,,0.00,WeatherDisplay:10.37,2013-03-05 18:13:00,
2013-03-05 10:15:00,24.8,14.7,29.60,North,0,0.0,0.0,65,0.00,CLR,,0.00,WeatherDisplay:10.37,2013-03-05 18:15:00,
2013-03-05 10:16:00,24.8,14.7,29.60,North,0,0.0,0.0,65,0.00,CLR,,0.00,WeatherDisplay:10.37,2013-03-05 18:16:00,
2013-03-05 10:18:00,24.8,14.7,29.60,North,0,0.0,0.0,65,0.00,CLR,,0.00,WeatherDisplay:10.37,2013-03-05 18:18:00,
2013-03-05 10:20:00,24.8,14.7,29.60,North,0,0.0,0.0,65,0.00,CLR,,0.00,WeatherDisplay:10.37,2013-03-05 18:20:00,
2013-03-05 10:22:00,24.8,14.7,29.60,North,0,0.0,0.0,65,0.00,CLR,,0.00,WeatherDisplay:10.37,2013-03-05 18:22:00,
2013-03-05 10:23:00,24.8,14.7,29.60,North,0,0.0,0.0,65,0.00,CLR,,0.00,WeatherDisplay:10.37,2013-03-05 18:23:00,
2013-03-05 10:24:00,24.8,14.7,29.60,North,0,0.0,0.0,65,0.00,CLR,,0.00,WeatherDisplay:10.37,2013-03-05 18:24:00,
2013-03-05 10:25:00,24.8,14.7,29.60,North,0,0.0,0.0,65,0.00,CLR,,0.00,WeatherDisplay:10.37,2013-03-05 18:25:00,
2013-03-05 10:27:00,24.8,14.7,29.60,North,0,0.0,0.0,65,0.00,CLR,,0.00,WeatherDisplay:10.37,2013-03-05 18:27:00,
2013-03-05 10:28:00,24.8,14.7,29.60,North,0,0.0,0.0,65,0.00,CLR,,0.00,WeatherDisplay:10.37,2013-03-05 18:28:00,
2013-03-05 10:29:00,24.8,14.7,29.60,North,0,0.0,0.0,65,0.00,CLR,,0.00,WeatherDisplay:10.37,2013-03-05 18:29:00,
2013-03-05 10:30:00,24.8,14.7,29.60,North,0,0.0,0.0,65,0.00,CLR,,0.00,WeatherDisplay:10.37,2013-03-05 18:30:00,
2013-03-05 10:32:00,24.8,14.7,29.60,North,0,0.0,0.0,65,0.00,CLR,,0.00,WeatherDisplay:10.37,2013-03-05 18:32:00,
2013-03-05 10:33:00,24.8,14.7,29.60,North,0,0.0,0.0,65,0.00,CLR,,0.00,WeatherDisplay:10.37,2013-03-05 18:33:00,
2013-03-05 10:34:00,24.8,14.7,29.60,North,0,0.0,0.0,65,0.00,CLR,,0.00,WeatherDisplay:10.37,2013-03-05 18:34:00,
2013-03-05 10:35:00,32.0,27.7,29.31,SE,138,0.0,0.0,84,0.00,CLR,CLR,0.00,WeatherDisplay:10.37,2013-03-05 18:35:00,
2013-03-05 10:36:00,24.8,14.7,29.60,North,0,0.0,0.0,65,0.00,CLR,,0.00,WeatherDisplay:10.37,2013-03-05 18:36:00,
2013-03-05 10:37:00,24.8,14.7,29.60,North,0,0.0,0.0,65,0.00,CLR,,0.00,WeatherDisplay:10.37,2013-03-05 18:37:00,
2013-03-05 10:39:00,24.8,14.7,29.60,North,0,0.0,0.0,65,0.00,CLR,,0.00,WeatherDisplay:10.37,2013-03-05 18:39:00,
2013-03-05 10:40:00,32.0,27.7,29.31,SE,140,0.0,0.0,84,0.00,CLR,CLR,0.00,WeatherDisplay:10.37,2013-03-05 18:40:00,
2013-03-05 10:41:00,24.8,14.7,29.60,North,0,0.0,0.0,65,0.00,CLR,,0.00,WeatherDisplay:10.37,2013-03-05 18:41:00,
2013-03-05 10:42:00,24.8,14.7,29.60,North,0,0.0,0.0,65,0.00,CLR,,0.00,WeatherDisplay:10.37,2013-03-05 18:42:00,
2013-03-05 10:44:00,24.8,14.7,29.60,North,0,0.0,0.0,65,0.00,CLR,,0.00,WeatherDisplay:10.37,2013-03-05 18:44:00,
2013-03-05 10:45:00,24.8,14.7,29.60,North,0,0.0,0.0,65,0.00,CLR,,0.00,WeatherDisplay:10.37,2013-03-05 18:45:00,
2013-03-05 10:46:00,24.8,14.7,29.60,North,0,0.0,0.0,65,0.00,CLR,,0.00,WeatherDisplay:10.37,2013-03-05 18:46:00,
2013-03-05 10:47:00,24.8,14.7,29.60,North,0,0.0,0.0,65,0.00,CLR,,0.00,WeatherDisplay:10.37,2013-03-05 18:47:00,
2013-03-05 10:49:00,24.8,14.7,29.60,North,0,0.0,0.0,65,0.00,CLR,,0.00,WeatherDisplay:10.37,2013-03-05 18:49:00,
2013-03-05 10:50:00,24.8,14.7,29.60,North,0,0.0,0.0,65,0.00,CLR,,0.00,WeatherDisplay:10.37,2013-03-05 18:50:00,
2013-03-05 10:51:00,24.8,14.7,29.60,North,0,0.0,0.0,65,0.00,CLR,,0.00,WeatherDisplay:10.37,2013-03-05 18:51:00,
2013-03-05 10:53:00,24.8,14.7,29.60,North,0,0.0,0.0,65,0.00,CLR,,0.00,WeatherDisplay:10.37,2013-03-05 18:53:00,
2013-03-05 10:54:00,24.8,14.7,29.60,North,0,0.0,0.0,65,0.00,CLR,,0.00,WeatherDisplay:10.37,2013-03-05 18:54:00,
2013-03-05 10:55:00,24.8,14.7,29.60,North,0,0.0,0.0,65,0.00,CLR,,0.00,WeatherDisplay:10.37,2013-03-05 18:55:00,
2013-03-05 10:56:00,24.8,14.7,29.60,North,0,0.0,0.0,65,0.00,CLR,,0.00,WeatherDisplay:10.37,2013-03-05 18:56:00,
2013-03-05 10:58:00,24.8,14.7,29.60,North,0,0.0,0.0,65,0.00,CLR,,0.00,WeatherDisplay:10.37,2013-03-05 18:58:00,
2013-03-05 11:00:00,24.8,14.7,29.60,North,0,0.0,0.0,65,0.00,CLR,,0.00,WeatherDisplay:10.37,2013-03-05 19:00:00,
2013-03-05 11:01:00,24.8,14.7,29.60,North,0,0.0,0.0,65,0.00,CLR,,0.00,WeatherDisplay:10.37,2013-03-05 19:01:00,
2013-03-05 11:04:00,24.8,14.7,29.60,North,0,0.0,0.0,65,0.00,CLR,,0.00,WeatherDisplay:10.37,2013-03-05 19:04:00,
2013-03-05 11:05:00,24.8,14.7,29.60,North,0,0.0,0.0,65,0.00,CLR,CLR,0.00,WeatherDisplay:10.37,2013-03-05 19:05:00,
2013-03-05 11:06:00,24.8,14.7,29.60,North,0,0.0,0.0,65,0.00,CLR,,0.00,WeatherDisplay:10.37,2013-03-05 19:06:00,
2013-03-05 11:09:00,24.8,14.7,29.60,North,0,0.0,0.0,65,0.00,CLR,,0.00,WeatherDisplay:10.37,2013-03-05 19:09:00,
2013-03-05 11:10:00,24.8,14.7,29.60,North,0,0.0,0.0,65,0.00,CLR,,0.00,WeatherDisplay:10.37,2013-03-05 19:10:00,
2013-03-05 11:11:00,24.8,14.7,29.60,North,0,0.0,0.0,65,0.00,CLR,,0.00,WeatherDisplay:10.37,2013-03-05 19:11:00,
2013-03-05 11:14:00,24.8,14.7,29.60,North,0,0.0,0.0,65,0.00,CLR,,0.00,WeatherDisplay:10.37,2013-03-05 19:14:00,
2013-03-05 11:15:00,24.8,14.7,29.60,North,0,0.0,0.0,65,0.00,CLR,CLR,0.00,WeatherDisplay:10.37,2013-03-05 19:15:00,
2013-03-05 11:16:00,24.8,14.7,29.60,North,0,0.0,0.0,65,0.00,CLR,,0.00,WeatherDisplay:10.37,2013-03-05 19:16:00,
2013-03-05 11:19:00,24.8,14.7,29.60,North,0,0.0,0.0,65,0.00,CLR,,0.00,WeatherDisplay:10.37,2013-03-05 19:19:00,
2013-03-05 11:20:00,24.8,14.7,29.60,North,0,0.0,0.0,65,0.00,CLR,,0.00,WeatherDisplay:10.37,2013-03-05 19:20:00,
2013-03-05 11:21:00,24.8,14.7,29.60,North,0,0.0,0.0,65,0.00,CLR,,0.00,WeatherDisplay:10.37,2013-03-05 19:21:00,
2013-03-05 11:22:00,24.8,14.7,29.60,North,0,0.0,0.0,65,0.00,CLR,,0.00,WeatherDisplay:10.37,2013-03-05 19:22:00,
2013-03-05 11:24:00,24.8,14.7,29.60,North,0,0.0,0.0,65,0.00,CLR,,0.00,WeatherDisplay:10.37,2013-03-05 19:24:00,
2013-03-05 11:25:00,24.8,14.7,29.60,North,0,0.0,0.0,65,0.00,CLR,,0.00,WeatherDisplay:10.37,2013-03-05 19:25:00,
2013-03-05 11:26:00,24.8,14.7,29.60,North,0,0.0,0.0,65,0.00,CLR,,0.00,WeatherDisplay:10.37,2013-03-05 19:26:00,
2013-03-05 11:27:00,24.8,14.7,29.60,North,0,0.0,0.0,65,0.00,CLR,,0.00,WeatherDisplay:10.37,2013-03-05 19:27:00,
2013-03-05 11:30:00,24.8,14.7,29.60,North,0,0.0,0.0,65,0.00,CLR,,0.00,WeatherDisplay:10.37,2013-03-05 19:30:00,
2013-03-05 11:32:00,24.8,14.7,29.60,North,0,0.0,0.0,65,0.00,CLR,,0.00,WeatherDisplay:10.37,2013-03-05 19:32:00,
2013-03-05 11:33:00,24.8,14.7,29.60,North,0,0.0,0.0,65,0.00,CLR,,0.00,WeatherDisplay:10.37,2013-03-05 19:33:00,
2013-03-05 11:35:00,24.8,14.7,29.60,North,0,0.0,0.0,65,0.00,CLR,,0.00,WeatherDisplay:10.37,2013-03-05 19:35:00,
2013-03-05 11:37:00,24.8,14.7,29.60,North,0,0.0,0.0,65,0.00,CLR,,0.00,WeatherDisplay:10.37,2013-03-05 19:37:00,
2013-03-05 11:38:00,24.8,14.7,29.60,North,0,0.0,0.0,65,0.00,CLR,,0.00,WeatherDisplay:10.37,2013-03-05 19:38:00,
2013-03-05 11:40:00,24.8,14.7,29.60,North,0,0.0,0.0,65,0.00,CLR,,0.00,WeatherDisplay:10.37,2013-03-05 19:40:00,
2013-03-05 11:43:00,24.8,14.7,29.60,North,0,0.0,0.0,65,0.00,CLR,,0.00,WeatherDisplay:10.37,2013-03-05 19:43:00,
2013-03-05 11:45:00,24.8,14.7,29.60,North,0,0.0,0.0,65,0.00,CLR,,0.00,WeatherDisplay:10.37,2013-03-05 19:45:00,
2013-03-05 11:48:00,24.8,14.7,29.60,North,0,0.0,0.0,65,0.00,CLR,,0.00,WeatherDisplay:10.37,2013-03-05 19:48:00,
2013-03-05 11:50:00,24.8,14.7,29.60,North,0,0.0,0.0,65,0.00,CLR,,0.00,WeatherDisplay:10.37,2013-03-05 19:50:00,
2013-03-05 11:53:00,24.8,14.7,29.60,North,0,0.0,0.0,65,0.00,CLR,,0.00,WeatherDisplay:10.37,2013-03-05 19:53:00,
2013-03-05 11:55:00,24.8,14.7,29.60,North,0,0.0,0.0,65,0.00,CLR,,0.00,WeatherDisplay:10.37,2013-03-05 19:55:00,
2013-03-05 11:58:00,24.8,14.7,29.60,North,0,0.0,0.0,65,0.00,CLR,,0.00,WeatherDisplay:10.37,2013-03-05 19:58:00,
2013-03-05 12:00:00,24.8,14.7,29.60,North,0,0.0,0.0,65,0.00,CLR,,0.00,WeatherDisplay:10.37,2013-03-05 20:00:00,
2013-03-05 12:01:00,24.8,14.7,29.60,North,0,0.0,0.0,65,0.00,CLR,,0.00,WeatherDisplay:10.37,2013-03-05 20:01:00,
2013-03-05 12:03:00,24.8,14.7,29.60,North,0,0.0,0.0,65,0.00,CLR,,0.00,WeatherDisplay:10.37,2013-03-05 20:03:00,
2013-03-05 12:05:00,24.8,14.7,29.60,North,0,0.0,0.0,65,0.00,CLR,,0.00,WeatherDisplay:10.37,2013-03-05 20:05:00,
2013-03-05 12:06:00,24.8,14.7,29.60,North,0,0.0,0.0,65,0.00,CLR,,0.00,WeatherDisplay:10.37,2013-03-05 20:06:00,
2013-03-05 12:08:00,24.8,14.7,29.60,North,0,0.0,0.0,65,0.00,CLR,,0.00,WeatherDisplay:10.37,2013-03-05 20:08:00,
2013-03-05 12:10:00,24.8,14.7,29.60,North,0,0.0,0.0,65,0.00,CLR,,0.00,WeatherDisplay:10.37,2013-03-05 20:10:00,
2013-03-05 12:11:00,24.8,14.7,29.60,North,0,0.0,0.0,65,0.00,CLR,,0.00,WeatherDisplay:10.37,2013-03-05 20:11:00,
2013-03-05 12:13:00,24.8,14.7,29.60,North,0,0.0,0.0,65,0.00,CLR,,0.00,WeatherDisplay:10.37,2013-03-05 20:13:00,
2013-03-05 12:14:00,24.8,14.7,29.60,North,0,0.0,0.0,65,0.00,CLR,,0.00,WeatherDisplay:10.37,2013-03-05 20:14:00,
2013-03-05 12:15:00,24.8,14.7,29.60,North,0,0.0,0.0,65,0.00,CLR,,0.00,WeatherDisplay:10.37,2013-03-05 20:15:00,
2013-03-05 12:16:00,24.8,14.7,29.60,North,0,0.0,0.0,65,0.00,CLR,,0.00,WeatherDisplay:10.37,2013-03-05 20:16:00,
2013-03-05 12:18:00,24.8,14.7,29.60,North,0,0.0,0.0,65,0.00,CLR,,0.00,WeatherDisplay:10.37,2013-03-05 20:18:00,
2013-03-05 12:19:00,24.8,14.7,29.60,North,0,0.0,0.0,65,0.00,CLR,,0.00,WeatherDisplay:10.37,2013-03-05 20:19:00,
2013-03-05 12:20:00,31.5,27.8,29.25,NNW,329,0.0,0.0,86,0.00,CLR,CLR,0.00,WeatherDisplay:10.37,2013-03-05 20:20:00,
2013-03-05 12:21:00,24.8,14.7,29.60,North,0,0.0,0.0,65,0.00,CLR,,0.00,WeatherDisplay:10.37,2013-03-05 20:21:00,
2013-03-05 12:24:00,24.8,14.7,29.60,North,0,0.0,0.0,65,0.00,CLR,,0.00,WeatherDisplay:10.37,2013-03-05 20:24:00,
2013-03-05 12:25:00,31.3,27.6,29.25,SSW,195,0.0,0.0,86,0.00,CLR,CLR,0.00,WeatherDisplay:10.37,2013-03-05 20:25:00,
2013-03-05 12:26:00,24.8,14.7,29.60,North,0,0.0,0.0,65,0.00,CLR,,0.00,WeatherDisplay:10.37,2013-03-05 20:26:00,
2013-03-05 12:29:00,24.8,14.7,29.60,North,0,0.0,0.0,65,0.00,CLR,,0.00,WeatherDisplay:10.37,2013-03-05 20:29:00,
2013-03-05 12:30:00,31.3,27.6,29.25,SSW,193,0.0,0.0,86,0.00,CLR,CLR,0.00,WeatherDisplay:10.37,2013-03-05 20:30:00,
2013-03-05 12:31:00,24.8,14.7,29.60,North,0,0.0,0.0,65,0.00,CLR,,0.00,WeatherDisplay:10.37,2013-03-05 20:31:00,
2013-03-05 12:32:00,24.8,14.7,29.60,North,0,0.0,0.0,65,0.00,CLR,,0.00,WeatherDisplay:10.37,2013-03-05 20:32:00,
2013-03-05 12:34:00,24.8,14.7,29.60,North,0,0.0,0.0,65,0.00,CLR,,0.00,WeatherDisplay:10.37,2013-03-05 20:34:00,
2013-03-05 12:35:00,31.3,27.6,29.25,NW,319,0.0,0.0,86,0.00,CLR,CLR,0.00,WeatherDisplay:10.37,2013-03-05 20:35:00,
2013-03-05 12:36:00,24.8,14.7,29.60,North,0,0.0,0.0,65,0.00,CLR,,0.00,WeatherDisplay:10.37,2013-03-05 20:36:00,
2013-03-05 12:37:00,24.8,14.7,29.60,North,0,0.0,0.0,65,0.00,CLR,,0.00,WeatherDisplay:10.37,2013-03-05 20:37:00,
2013-03-05 12:39:00,24.8,14.7,29.60,North,0,0.0,0.0,65,0.00,CLR,,0.00,WeatherDisplay:10.37,2013-03-05 20:39:00,
2013-03-05 12:40:00,31.1,27.4,29.25,NNW,343,0.0,0.0,86,0.00,CLR,CLR,0.00,WeatherDisplay:10.37,2013-03-05 20:40:00,
2013-03-05 12:41:00,24.8,14.7,29.60,North,0,0.0,0.0,65,0.00,CLR,,0.00,WeatherDisplay:10.37,2013-03-05 20:41:00,
2013-03-05 12:43:00,24.8,14.7,29.60,North,0,0.0,0.0,65,0.00,CLR,,0.00,WeatherDisplay:10.37,2013-03-05 20:43:00,
2013-03-05 12:44:00,24.8,14.7,29.60,North,0,0.0,0.0,65,0.00,CLR,,0.00,WeatherDisplay:10.37,2013-03-05 20:44:00,
2013-03-05 12:45:00,24.8,14.7,29.60,North,0,0.0,0.0,65,0.00,CLR,,0.00,WeatherDisplay:10.37,2013-03-05 20:45:00,
2013-03-05 12:46:00,24.8,14.7,29.60,North,0,0.0,0.0,65,0.00,CLR,,0.00,WeatherDisplay:10.37,2013-03-05 20:46:00,
2013-03-05 12:48:00,24.8,14.7,29.60,North,0,0.0,0.0,65,0.00,CLR,,0.00,WeatherDisplay:10.37,2013-03-05 20:48:00,
2013-03-05 12:50:00,24.8,14.7,29.60,North,0,0.0,0.0,65,0.00,CLR,,0.00,WeatherDisplay:10.37,2013-03-05 20:50:00,
2013-03-05 12:51:00,24.8,14.7,29.60,North,0,0.0,0.0,65,0.00,CLR,,0.00,WeatherDisplay:10.37,2013-03-05 20:51:00,
2013-03-05 12:53:00,24.8,14.7,29.60,North,0,0.0,0.0,65,0.00,CLR,,0.00,WeatherDisplay:10.37,2013-03-05 20:53:00,
2013-03-05 12:55:00,24.8,14.7,29.60,North,0,0.0,0.0,65,0.00,CLR,,0.00,WeatherDisplay:10.37,2013-03-05 20:55:00,
2013-03-05 12:56:00,24.8,14.7,29.60,North,0,0.0,0.0,65,0.00,CLR,,0.00,WeatherDisplay:10.37,2013-03-05 20:56:00,
2013-03-05 12:58:00,24.8,14.7,29.60,North,0,0.0,0.0,65,0.00,CLR,,0.00,WeatherDisplay:10.37,2013-03-05 20:58:00,
2013-03-05 13:00:00,24.8,14.7,29.60,North,0,0.0,0.0,65,0.00,CLR,,0.00,WeatherDisplay:10.37,2013-03-05 21:00:00,
2013-03-05 13:01:00,24.8,14.7,29.60,North,0,0.0,0.0,65,0.00,CLR,,0.00,WeatherDisplay:10.37,2013-03-05 21:01:00,
2013-03-05 13:03:00,24.8,14.7,29.60,North,0,0.0,0.0,65,0.00,CLR,,0.00,WeatherDisplay:10.37,2013-03-05 21:03:00,
2013-03-05 13:05:00,24.8,14.7,29.60,North,0,0.0,0.0,65,0.00,CLR,,0.00,WeatherDisplay:10.37,2013-03-05 21:05:00,
2013-03-05 13:06:00,24.8,14.7,29.60,North,0,0.0,0.0,65,0.00,CLR,,0.00,WeatherDisplay:10.37,2013-03-05 21:06:00,
2013-03-05 13:07:00,24.8,14.7,29.60,North,0,0.0,0.0,65,0.00,CLR,,0.00,WeatherDisplay:10.37,2013-03-05 21:07:00,
2013-03-05 13:08:00,24.8,14.7,29.60,North,0,0.0,0.0,65,0.00,CLR,,0.00,WeatherDisplay:10.37,2013-03-05 21:08:00,
2013-03-05 13:10:00,24.8,14.7,29.60,North,0,0.0,0.0,65,0.00,CLR,,0.00,WeatherDisplay:10.37,2013-03-05 21:10:00,
2013-03-05 13:11:00,24.8,14.7,29.60,North,0,0.0,0.0,65,0.00,CLR,,0.00,WeatherDisplay:10.37,2013-03-05 21:11:00,
2013-03-05 13:12:00,24.8,14.7,29.60,North,0,0.0,0.0,65,0.00,CLR,,0.00,WeatherDisplay:10.37,2013-03-05 21:12:00,
2013-03-05 13:13:00,24.8,14.7,29.60,North,0,0.0,0.0,65,0.00,CLR,,0.00,WeatherDisplay:10.37,2013-03-05 21:13:00,
2013-03-05 13:15:00,31.1,27.7,29.24,WNW,299,0.0,0.0,87,0.00,CLR,CLR,0.00,WeatherDisplay:10.37,2013-03-05 21:15:00,
2013-03-05 13:16:00,24.8,14.7,29.60,North,0,0.0,0.0,65,0.00,CLR,,0.00,WeatherDisplay:10.37,2013-03-05 21:16:00,
2013-03-05 13:17:00,24.8,14.7,29.60,North,0,0.0,0.0,65,0.00,CLR,,0.00,WeatherDisplay:10.37,2013-03-05 21:17:00,
2013-03-05 13:18:00,24.8,14.7,29.60,North,0,0.0,0.0,65,0.00,CLR,,0.00,WeatherDisplay:10.37,2013-03-05 21:18:00,
2013-03-05 13:20:00,31.1,27.7,29.24,NW,317,0.0,0.0,87,0.00,CLR,CLR,0.00,WeatherDisplay:10.37,2013-03-05 21:20:00,
2013-03-05 13:21:00,24.8,14.7,29.60,North,0,0.0,0.0,65,0.00,CLR,,0.00,WeatherDisplay:10.37,2013-03-05 21:21:00,
2013-03-05 13:22:00,24.8,14.7,29.60,North,0,0.0,0.0,65,0.00,CLR,,0.00,WeatherDisplay:10.37,2013-03-05 21:22:00,
2013-03-05 13:23:00,24.8,14.7,29.60,North,0,0.0,0.0,65,0.00,CLR,,0.00,WeatherDisplay:10.37,2013-03-05 21:23:00,
2013-03-05 13:25:00,31.1,27.7,29.22,North,356,0.0,0.0,87,0.00,CLR,CLR,0.00,WeatherDisplay:10.37,2013-03-05 21:25:00,
2013-03-05 13:26:00,24.8,14.7,29.60,North,0,0.0,0.0,65,0.00,CLR,,0.00,WeatherDisplay:10.37,2013-03-05 21:26:00,
2013-03-05 13:27:00,24.8,14.7,29.60,North,0,0.0,0.0,65,0.00,CLR,,0.00,WeatherDisplay:10.37,2013-03-05 21:27:00,
2013-03-05 13:29:00,24.8,14.7,29.60,North,0,0.0,0.0,65,0.00,CLR,,0.00,WeatherDisplay:10.37,2013-03-05 21:29:00,
2013-03-05 13:30:00,31.1,27.7,29.22,NNE,23,0.0,0.0,87,0.00,CLR,CLR,0.00,WeatherDisplay:10.37,2013-03-05 21:30:00,
2013-03-05 13:31:00,24.8,14.7,29.60,North,0,0.0,0.0,65,0.00,CLR,,0.00,WeatherDisplay:10.37,2013-03-05 21:31:00,
2013-03-05 13:33:00,24.8,14.7,29.60,North,0,0.0,0.0,65,0.00,CLR,,0.00,WeatherDisplay:10.37,2013-03-05 21:33:00,
2013-03-05 13:34:00,24.8,14.7,29.60,North,0,0.0,0.0,65,0.00,CLR,,0.00,WeatherDisplay:10.37,2013-03-05 21:34:00,
2013-03-05 13:35:00,30.9,27.5,29.22,South,191,0.0,0.0,87,0.00,CLR,CLR,0.00,WeatherDisplay:10.37,2013-03-05 21:35:00,
2013-03-05 13:36:00,24.8,14.7,29.60,North,0,0.0,0.0,65,0.00,CLR,,0.00,WeatherDisplay:10.37,2013-03-05 21:36:00,
2013-03-05 13:38:00,24.8,14.7,29.60,North,0,0.0,0.0,65,0.00,CLR,,0.00,WeatherDisplay:10.37,2013-03-05 21:38:00,
2013-03-05 13:39:00,24.8,14.7,29.60,North,0,0.0,0.0,65,0.00,CLR,,0.00,WeatherDisplay:10.37,2013-03-05 21:39:00,
2013-03-05 13:40:00,30.9,27.5,29.22,SE,127,0.0,0.0,87,0.00,CLR,CLR,0.00,WeatherDisplay:10.37,2013-03-05 21:40:00,
2013-03-05 13:41:00,24.8,14.7,29.60,North,0,0.0,0.0,65,0.00,CLR,,0.00,WeatherDisplay:10.37,2013-03-05 21:41:00,
2013-03-05 13:43:00,24.8,14.7,29.60,North,0,0.0,0.0,65,0.00,CLR,,0.00,WeatherDisplay:10.37,2013-03-05 21:43:00,
2013-03-05 13:44:00,24.8,14.7,29.60,North,0,0.0,0.0,65,0.00,CLR,,0.00,WeatherDisplay:10.37,2013-03-05 21:44:00,
2013-03-05 13:45:00,31.1,27.7,29.23,NNW,334,0.0,0.0,87,0.00,CLR,CLR,0.00,WeatherDisplay:10.37,2013-03-05 21:45:00,
2013-03-05 13:46:00,24.8,14.7,29.60,North,0,0.0,0.0,65,0.00,CLR,,0.00,WeatherDisplay:10.37,2013-03-05 21:46:00,
2013-03-05 13:48:00,24.8,14.7,29.60,North,0,0.0,0.0,65,0.00,CLR,,0.00,WeatherDisplay:10.37,2013-03-05 21:48:00,
2013-03-05 13:49:00,24.8,14.7,29.60,North,0,0.0,0.0,65,0.00,CLR,,0.00,WeatherDisplay:10.37,2013-03-05 21:49:00,
2013-03-05 13:50:00,31.1,27.7,29.23,SSW,196,0.0,0.0,87,0.00,CLR,CLR,0.00,WeatherDisplay:10.37,2013-03-05 21:50:00,
2013-03-05 13:51:00,24.8,14.7,29.60,North,0,0.0,0.0,65,0.00,CLR,,0.00,WeatherDisplay:10.37,2013-03-05 21:51:00,
2013-03-05 13:52:00,24.8,14.7,29.60,North,0,0.0,0.0,65,0.00,CLR,,0.00,WeatherDisplay:10.37,2013-03-05 21:52:00,
2013-03-05 13:53:00,24.8,14.7,29.60,North,0,0.0,0.0,65,0.00,CLR,,0.00,WeatherDisplay:10.37,2013-03-05 21:53:00,
2013-03-05 13:54:00,24.8,14.7,29.60,North,0,0.0,0.0,65,0.00,CLR,,0.00,WeatherDisplay:10.37,2013-03-05 21:54:00,
2013-03-05 13:55:00,31.3,27.9,29.23,South,176,0.0,0.0,87,0.00,CLR,CLR,0.00,WeatherDisplay:10.37,2013-03-05 21:55:00,
2013-03-05 13:56:00,24.8,14.7,29.60,North,0,0.0,0.0,65,0.00,CLR,,0.00,WeatherDisplay:10.37,2013-03-05 21:56:00,
2013-03-05 13:57:00,24.8,14.7,29.60,North,0,0.0,0.0,65,0.00,CLR,,0.00,WeatherDisplay:10.37,2013-03-05 21:57:00,
2013-03-05 13:58:00,24.8,14.7,29.60,North,0,0.0,0.0,65,0.00,CLR,,0.00,WeatherDisplay:10.37,2013-03-05 21:58:00,
2013-03-05 13:59:00,24.8,14.7,29.60,North,0,0.0,0.0,65,0.00,CLR,,0.00,WeatherDisplay:10.37,2013-03-05 21:59:00,
2013-03-05 14:00:00,31.3,27.9,29.23,WSW,241,0.0,0.0,87,0.00,CLR,CLR,0.00,WeatherDisplay:10.37,2013-03-05 22:00:00,
2013-03-05 14:01:00,24.8,14.7,29.60,North,0,0.0,0.0,65,0.00,CLR,,0.00,WeatherDisplay:10.37,2013-03-05 22:01:00,
2013-03-05 14:02:00,24.8,14.7,29.60,North,0,0.0,0.0,65,0.00,CLR,,0.00,WeatherDisplay:10.37,2013-03-05 22:02:00,
2013-03-05 14:03:00,24.8,14.7,29.60,North,0,0.0,0.0,65,0.00,CLR,,0.00,WeatherDisplay:10.37,2013-03-05 22:03:00,
2013-03-05 14:04:00,24.8,14.7,29.60,North,0,0.0,0.0,65,0.00,CLR,,0.00,WeatherDisplay:10.37,2013-03-05 22:04:00,
2013-03-05 14:05:00,31.3,27.9,29.23,West,260,0.0,0.0,87,0.00,CLR,CLR,0.00,WeatherDisplay:10.37,2013-03-05 22:05:00,
2013-03-05 14:07:00,24.8,14.7,29.60,North,0,0.0,0.0,65,0.00,CLR,,0.00,WeatherDisplay:10.37,2013-03-05 22:07:00,
2013-03-05 14:09:00,24.8,14.7,29.60,North,0,0.0,0.0,65,0.00,CLR,,0.00,WeatherDisplay:10.37,2013-03-05 22:09:00,
2013-03-05 14:10:00,31.3,27.9,29.23,WNW,301,0.0,0.0,87,0.00,CLR,CLR,0.00,WeatherDisplay:10.37,2013-03-05 22:10:00,
2013-03-05 14:12:00,24.8,14.7,29.60,North,0,0.0,0.0,65,0.00,CLR,,0.00,WeatherDisplay:10.37,2013-03-05 22:12:00,
2013-03-05 14:14:00,24.8,14.7,29.60,North,0,0.0,0.0,65,0.00,CLR,,0.00,WeatherDisplay:10.37,2013-03-05 22:14:00,
2013-03-05 14:15:00,24.8,14.7,29.60,North,0,0.0,0.0,65,0.00,CLR,,0.00,WeatherDisplay:10.37,2013-03-05 22:15:00,
2013-03-05 14:17:00,24.8,14.7,29.60,North,0,0.0,0.0,65,0.00,CLR,,0.00,WeatherDisplay:10.37,2013-03-05 22:17:00,
2013-03-05 14:19:00,24.8,14.7,29.60,North,0,0.0,0.0,65,0.00,CLR,,0.00,WeatherDisplay:10.37,2013-03-05 22:19:00,
2013-03-05 14:20:00,24.8,14.7,29.60,North,0,0.0,0.0,65,0.00,CLR,,0.00,WeatherDisplay:10.37,2013-03-05 22:20:00,
2013-03-05 14:22:00,24.8,14.7,29.60,North,0,0.0,0.0,65,0.00,CLR,,0.00,WeatherDisplay:10.37,2013-03-05 22:22:00,
2013-03-05 14:25:00,24.8,14.7,29.60,North,0,0.0,0.0,65,0.00,CLR,CLR,0.00,WeatherDisplay:10.37,2013-03-05 22:25:00,
2013-03-05 14:27:00,24.8,14.7,29.60,North,0,0.0,0.0,65,0.00,CLR,,0.00,WeatherDisplay:10.37,2013-03-05 22:27:00,
2013-03-05 14:28:00,24.8,14.7,29.60,North,0,0.0,0.0,65,0.00,CLR,,0.00,WeatherDisplay:10.37,2013-03-05 22:28:00,
2013-03-05 14:30:00,24.8,14.7,29.60,North,0,0.0,0.0,65,0.00,CLR,,0.00,WeatherDisplay:10.37,2013-03-05 22:30:00,
2013-03-05 14:32:00,24.8,14.7,29.60,North,0,0.0,0.0,65,0.00,CLR,,0.00,WeatherDisplay:10.37,2013-03-05 22:32:00,
2013-03-05 14:33:00,24.8,14.7,29.60,North,0,0.0,0.0,65,0.00,CLR,,0.00,WeatherDisplay:10.37,2013-03-05 22:33:00,
2013-03-05 14:35:00,24.8,14.7,29.60,North,0,0.0,0.0,65,0.00,CLR,,0.00,WeatherDisplay:10.37,2013-03-05 22:35:00,
2013-03-05 14:37:00,24.8,14.7,29.60,North,0,0.0,0.0,65,0.00,CLR,,0.00,WeatherDisplay:10.37,2013-03-05 22:37:00,
2013-03-05 14:38:00,24.8,14.7,29.60,North,0,0.0,0.0,65,0.00,CLR,,0.00,WeatherDisplay:10.37,2013-03-05 22:38:00,
2013-03-05 14:40:00,24.8,14.7,29.60,North,0,0.0,0.0,65,0.00,CLR,,0.00,WeatherDisplay:10.37,2013-03-05 22:40:00,
2013-03-05 14:42:00,24.8,14.7,29.60,North,0,0.0,0.0,65,0.00,CLR,,0.00,WeatherDisplay:10.37,2013-03-05 22:42:00,
2013-03-05 14:43:00,24.8,14.7,29.60,North,0,0.0,0.0,65,0.00,CLR,,0.00,WeatherDisplay:10.37,2013-03-05 22:43:00,
2013-03-05 14:45:00,24.8,14.7,29.60,North,0,0.0,0.0,65,0.00,CLR,,0.00,WeatherDisplay:10.37,2013-03-05 22:45:00,
2013-03-05 14:47:00,24.8,14.7,29.60,North,0,0.0,0.0,65,0.00,CLR,,0.00,WeatherDisplay:10.37,2013-03-05 22:47:00,
2013-03-05 14:48:00,24.8,14.7,29.60,North,0,0.0,0.0,65,0.00,CLR,,0.00,WeatherDisplay:10.37,2013-03-05 22:48:00,
2013-03-05 14:50:00,24.8,14.7,29.60,North,0,0.0,0.0,65,0.00,CLR,,0.00,WeatherDisplay:10.37,2013-03-05 22:50:00,
2013-03-05 14:53:00,24.8,14.7,29.60,North,0,0.0,0.0,65,0.00,CLR,,0.00,WeatherDisplay:10.37,2013-03-05 22:53:00,
2013-03-05 14:54:00,24.8,14.7,29.60,North,0,0.0,0.0,65,0.00,CLR,,0.00,WeatherDisplay:10.37,2013-03-05 22:54:00,
2013-03-05 14:55:00,30.9,27.8,29.23,West,263,0.0,0.0,88,0.00,CLR,CLR,0.00,WeatherDisplay:10.37,2013-03-05 22:55:00,
2013-03-05 14:56:00,24.8,14.7,29.60,North,0,0.0,0.0,65,0.00,CLR,,0.00,WeatherDisplay:10.37,2013-03-05 22:56:00,
2013-03-05 14:58:00,24.8,14.7,29.60,North,0,0.0,0.0,65,0.00,CLR,,0.00,WeatherDisplay:10.37,2013-03-05 22:58:00,
2013-03-05 14:59:00,24.8,14.7,29.60,North,0,0.0,0.0,65,0.00,CLR,,0.00,WeatherDisplay:10.37,2013-03-05 22:59:00,
2013-03-05 15:00:00,30.9,27.8,29.23,East,90,0.0,0.0,88,0.00,CLR,CLR,0.00,WeatherDisplay:10.37,2013-03-05 23:00:00,
2013-03-05 15:01:00,24.8,14.7,29.60,North,0,0.0,0.0,65,0.00,CLR,,0.00,WeatherDisplay:10.37,2013-03-05 23:01:00,
2013-03-05 15:03:00,24.8,14.7,29.60,North,0,0.0,0.0,65,0.00,CLR,,0.00,WeatherDisplay:10.37,2013-03-05 23:03:00,
2013-03-05 15:04:00,24.8,14.7,29.60,North,0,0.0,0.0,65,0.00,CLR,,0.00,WeatherDisplay:10.37,2013-03-05 23:04:00,
2013-03-05 15:05:00,30.9,27.8,29.21,SE,144,0.0,0.0,88,0.00,CLR,CLR,0.00,WeatherDisplay:10.37,2013-03-05 23:05:00,
2013-03-05 15:06:00,24.8,14.7,29.60,North,0,0.0,0.0,65,0.00,CLR,,0.00,WeatherDisplay:10.37,2013-03-05 23:06:00,
2013-03-05 15:08:00,24.8,14.7,29.60,North,0,0.0,0.0,65,0.00,CLR,,0.00,WeatherDisplay:10.37,2013-03-05 23:08:00,
2013-03-05 15:09:00,24.8,14.7,29.60,North,0,0.0,0.0,65,0.00,CLR,,0.00,WeatherDisplay:10.37,2013-03-05 23:09:00,
2013-03-05 15:10:00,24.8,14.7,29.60,North,0,0.0,0.0,65,0.00,CLR,,0.00,WeatherDisplay:10.37,2013-03-05 23:10:00,
2013-03-05 15:15:00,31.3,28.4,29.21,South,177,0.0,0.0,89,0.00,CLR,CLR,0.00,WeatherDisplay:10.37,2013-03-05 23:15:00,
2013-03-05 15:20:00,31.3,28.7,29.21,SSW,203,0.0,1.0,90,0.00,CLR,CLR,0.00,WeatherDisplay:10.37,2013-03-05 23:20:00,
2013-03-05 15:25:00,31.5,29.1,29.22,WNW,292,1.0,3.0,91,0.00,CLR,CLR,0.00,WeatherDisplay:10.37,2013-03-05 23:25:00,
2013-03-05 15:30:00,31.5,29.4,29.22,NE,44,1.0,3.0,92,0.00,CLR,CLR,0.00,WeatherDisplay:10.37,2013-03-05 23:30:00,
2013-03-05 15:35:00,31.3,29.2,29.22,ESE,114,0.0,0.0,92,0.00,CLR,CLR,0.00,WeatherDisplay:10.37,2013-03-05 23:35:00,
2013-03-05 15:40:00,31.3,29.5,29.22,WSW,239,0.0,2.0,93,0.00,CLR,CLR,0.00,WeatherDisplay:10.37,2013-03-05 23:40:00,
2013-03-05 15:45:00,31.1,29.3,29.21,WNW,299,0.0,2.0,93,0.00,CLR,CLR,0.00,WeatherDisplay:10.37,2013-03-05 23:45:00,
2013-03-05 15:50:00,30.9,29.4,29.21,NW,314,0.0,0.0,94,0.00,CLR,CLR,0.00,WeatherDisplay:10.37,2013-03-05 23:50:00,
2013-03-05 18:48:00,24.8,14.7,29.60,North,0,0.0,0.0,65,0.00,CLR,,0.00,WeatherDisplay:10.37,2013-03-06 02:48:00,
2013-03-05 18:53:00,24.8,14.7,29.60,North,0,0.0,0.0,65,0.00,CLR,,0.00,WeatherDisplay:10.37,2013-03-06 02:53:00,
2013-03-05 18:54:00,24.8,14.7,29.60,North,0,0.0,0.0,65,0.00,CLR,,0.00,WeatherDisplay:10.37,2013-03-06 02:54:00,
2013-03-05 18:58:00,24.8,14.7,29.60,North,0,0.0,0.0,65,0.00,CLR,,0.00,WeatherDisplay:10.37,2013-03-06 02:58:00,
2013-03-05 18:59:00,24.8,14.7,29.60,North,0,0.0,0.0,65,0.00,CLR,,0.00,WeatherDisplay:10.37,2013-03-06 02:59:00,
2013-03-05 19:03:00,24.8,14.7,29.60,North,0,0.0,0.0,65,0.00,CLR,,0.00,WeatherDisplay:10.37,2013-03-06 03:03:00,
2013-03-05 19:04:00,24.8,14.7,29.60,North,0,0.0,0.0,65,0.00,CLR,,0.00,WeatherDisplay:10.37,2013-03-06 03:04:00,
2013-03-05 19:08:00,24.8,14.7,29.60,North,0,0.0,0.0,65,0.00,CLR,,0.00,WeatherDisplay:10.37,2013-03-06 03:08:00,
2013-03-05 19:09:00,24.8,14.7,29.60,North,0,0.0,0.0,65,0.00,CLR,,0.00,WeatherDisplay:10.37,2013-03-06 03:09:00,
2013-03-05 19:14:00,24.8,14.7,29.60,North,0,0.0,0.0,65,0.00,CLR,,0.00,WeatherDisplay:10.37,2013-03-06 03:14:00,
2013-03-05 19:19:00,24.8,14.7,29.60,North,0,0.0,0.0,65,0.00,CLR,,0.00,WeatherDisplay:10.37,2013-03-06 03:19:00,
2013-03-05 19:24:00,24.8,14.7,29.60,North,0,0.0,0.0,65,0.00,CLR,,0.00,WeatherDisplay:10.37,2013-03-06 03:24:00,
2013-03-05 19:29:00,24.8,14.7,29.60,North,0,0.0,0.0,65,0.00,CLR,,0.00,WeatherDisplay:10.37,2013-03-06 03:29:00,
2013-03-05 19:34:00,24.8,14.7,29.60,North,0,0.0,0.0,65,0.00,CLR,,0.00,WeatherDisplay:10.37,2013-03-06 03:34:00,
2013-03-05 19:35:00,24.8,14.7,29.60,North,0,0.0,0.0,65,0.00,CLR,,0.00,WeatherDisplay:10.37,2013-03-06 03:35:00,
2013-03-05 19:39:00,24.8,14.7,29.60,North,0,0.0,0.0,65,0.00,CLR,,0.00,WeatherDisplay:10.37,2013-03-06 03:39:00,
2013-03-05 19:40:00,24.8,14.7,29.60,North,0,0.0,0.0,65,0.00,CLR,CLR,0.00,WeatherDisplay:10.37,2013-03-06 03:40:00,
2013-03-05 19:45:00,24.8,14.7,29.60,North,0,0.0,0.0,65,0.00,CLR,,0.00,WeatherDisplay:10.37,2013-03-06 03:45:00,
2013-03-05 19:50:00,24.8,14.7,29.60,North,0,0.0,0.0,65,0.00,CLR,,0.00,WeatherDisplay:10.37,2013-03-06 03:50:00,
2013-03-05 19:55:00,24.8,14.7,29.60,North,0,0.0,0.0,65,0.00,CLR,,0.00,WeatherDisplay:10.37,2013-03-06 03:55:00,
2013-03-05 20:00:00,24.8,14.7,29.60,North,0,0.0,0.0,65,0.00,CLR,,0.00,WeatherDisplay:10.37,2013-03-06 04:00:00,
2013-03-05 20:05:00,24.8,14.7,29.60,North,0,0.0,0.0,65,0.00,CLR,,0.00,WeatherDisplay:10.37,2013-03-06 04:05:00,
2013-03-05 20:06:00,24.8,14.7,29.60,North,0,0.0,0.0,65,0.00,CLR,,0.00,WeatherDisplay:10.37,2013-03-06 04:06:00,
2013-03-05 20:10:00,24.8,14.7,29.60,North,0,0.0,0.0,65,0.00,CLR,,0.00,WeatherDisplay:10.37,2013-03-06 04:10:00,
2013-03-05 20:11:00,24.8,14.7,29.60,North,0,0.0,0.0,65,0.00,CLR,,0.00,WeatherDisplay:10.37,2013-03-06 04:11:00,
2013-03-05 20:15:00,24.8,14.7,29.60,North,0,0.0,0.0,65,0.00,CLR,,0.00,WeatherDisplay:10.37,2013-03-06 04:15:00,
2013-03-05 20:16:00,24.8,14.7,29.60,North,0,0.0,0.0,65,0.00,CLR,,0.00,WeatherDisplay:10.37,2013-03-06 04:16:00,
2013-03-05 20:21:00,24.8,14.7,29.60,North,0,0.0,0.0,65,0.00,CLR,,0.00,WeatherDisplay:10.37,2013-03-06 04:21:00,
2013-03-05 20:26:00,24.8,14.7,29.60,North,0,0.0,0.0,65,0.00,CLR,,0.00,WeatherDisplay:10.37,2013-03-06 04:26:00,
2013-03-05 20:31:00,24.8,14.7,29.60,North,0,0.0,0.0,65,0.00,CLR,,0.00,WeatherDisplay:10.37,2013-03-06 04:31:00,
2013-03-05 20:32:00,24.8,14.7,29.60,North,0,0.0,0.0,65,0.00,CLR,,0.00,WeatherDisplay:10.37,2013-03-06 04:32:00,
2013-03-05 20:36:00,24.8,14.7,29.60,North,0,0.0,0.0,65,0.00,CLR,,0.00,WeatherDisplay:10.37,2013-03-06 04:36:00,
2013-03-05 20:37:00,24.8,14.7,29.60,North,0,0.0,0.0,65,0.00,CLR,,0.00,WeatherDisplay:10.37,2013-03-06 04:37:00,
2013-03-05 20:38:00,24.8,14.7,29.60,North,0,0.0,0.0,65,0.00,CLR,,0.00,WeatherDisplay:10.37,2013-03-06 04:38:00,
2013-03-05 20:41:00,24.8,14.7,29.60,North,0,0.0,0.0,65,0.00,CLR,,0.00,WeatherDisplay:10.37,2013-03-06 04:41:00,
2013-03-05 20:42:00,24.8,14.7,29.60,North,0,0.0,0.0,65,0.00,CLR,,0.00,WeatherDisplay:10.37,2013-03-06 04:42:00,
2013-03-05 20:43:00,24.8,14.7,29.60,North,0,0.0,0.0,65,0.00,CLR,,0.00,WeatherDisplay:10.37,2013-03-06 04:43:00,
2013-03-05 20:46:00,24.8,14.7,29.60,North,0,0.0,0.0,65,0.00,CLR,,0.00,WeatherDisplay:10.37,2013-03-06 04:46:00,
2013-03-05 20:47:00,24.8,14.7,29.60,North,0,0.0,0.0,65,0.00,CLR,,0.00,WeatherDisplay:10.37,2013-03-06 04:47:00,
2013-03-05 20:48:00,24.8,14.7,29.60,North,0,0.0,0.0,65,0.00,CLR,,0.00,WeatherDisplay:10.37,2013-03-06 04:48:00,
2013-03-05 20:52:00,24.8,14.7,29.60,North,0,0.0,0.0,65,0.00,CLR,,0.00,WeatherDisplay:10.37,2013-03-06 04:52:00,
2013-03-05 20:53:00,24.8,14.7,29.60,North,0,0.0,0.0,65,0.00,CLR,,0.00,WeatherDisplay:10.37,2013-03-06 04:53:00,
2013-03-05 20:57:00,24.8,14.7,29.60,North,0,0.0,0.0,65,0.00,CLR,,0.00,WeatherDisplay:10.37,2013-03-06 04:57:00,
2013-03-05 20:58:00,24.8,14.7,29.60,North,0,0.0,0.0,65,0.00,CLR,,0.00,WeatherDisplay:10.37,2013-03-06 04:58:00,
2013-03-05 21:00:00,24.8,14.7,29.60,North,0,0.0,0.0,65,0.00,CLR,CLR,0.00,WeatherDisplay:10.37,2013-03-06 05:00:00,
2013-03-05 21:05:00,24.8,14.7,29.60,North,0,0.0,0.0,65,0.00,CLR,,0.00,WeatherDisplay:10.37,2013-03-06 05:05:00,
2013-03-05 21:10:00,24.8,14.7,29.60,North,0,0.0,0.0,65,0.00,CLR,,0.00,WeatherDisplay:10.37,2013-03-06 05:10:00,
2013-03-05 21:15:00,24.8,14.7,29.60,North,0,0.0,0.0,65,0.00,CLR,,0.00,WeatherDisplay:10.37,2013-03-06 05:15:00,
2013-03-05 21:16:00,24.8,14.7,29.60,North,0,0.0,0.0,65,0.00,CLR,,0.00,WeatherDisplay:10.37,2013-03-06 05:16:00,
2013-03-05 21:20:00,24.8,14.7,29.60,North,0,0.0,0.0,65,0.00,CLR,,0.00,WeatherDisplay:10.37,2013-03-06 05:20:00,
2013-03-05 21:21:00,24.8,14.7,29.60,North,0,0.0,0.0,65,0.00,CLR,,0.00,WeatherDisplay:10.37,2013-03-06 05:21:00,
2013-03-05 21:25:00,24.8,14.7,29.60,North,0,0.0,0.0,65,0.00,CLR,,0.00,WeatherDisplay:10.37,2013-03-06 05:25:00,
2013-03-05 21:26:00,24.8,14.7,29.60,North,0,0.0,0.0,65,0.00,CLR,,0.00,WeatherDisplay:10.37,2013-03-06 05:26:00,
2013-03-05 21:30:00,24.8,14.7,29.60,North,0,0.0,0.0,65,0.00,CLR,,0.00,WeatherDisplay:10.37,2013-03-06 05:30:00,
2013-03-05 21:31:00,24.8,14.7,29.60,North,0,0.0,0.0,65,0.00,CLR,,0.00,WeatherDisplay:10.37,2013-03-06 05:31:00,
2013-03-05 21:35:00,24.8,14.7,29.60,North,0,0.0,0.0,65,0.00,CLR,,0.00,WeatherDisplay:10.37,2013-03-06 05:35:00,
2013-03-05 21:36:00,24.8,14.7,29.60,North,0,0.0,0.0,65,0.00,CLR,,0.00,WeatherDisplay:10.37,2013-03-06 05:36:00,
2013-03-05 21:40:00,24.8,14.7,29.60,North,0,0.0,0.0,65,0.00,CLR,,0.00,WeatherDisplay:10.37,2013-03-06 05:40:00,
2013-03-05 21:41:00,24.8,14.7,29.60,North,0,0.0,0.0,65,0.00,CLR,,0.00,WeatherDisplay:10.37,2013-03-06 05:41:00,
2013-03-05 21:46:00,24.8,14.7,29.60,North,0,0.0,0.0,65,0.00,CLR,,0.00,WeatherDisplay:10.37,2013-03-06 05:46:00,
2013-03-05 21:51:00,24.8,14.7,29.60,North,0,0.0,0.0,65,0.00,CLR,,0.00,WeatherDisplay:10.37,2013-03-06 05:51:00,
2013-03-05 21:56:00,24.8,14.7,29.60,North,0,0.0,0.0,65,0.00,CLR,,0.00,WeatherDisplay:10.37,2013-03-06 05:56:00,
2013-03-05 21:57:00,24.8,14.7,29.60,North,0,0.0,0.0,65,0.00,CLR,,0.00,WeatherDisplay:10.37,2013-03-06 05:57:00,
2013-03-05 22:01:00,24.8,14.7,29.60,North,0,0.0,0.0,65,0.00,CLR,,0.00,WeatherDisplay:10.37,2013-03-06 06:01:00,
2013-03-05 22:02:00,24.8,14.7,29.60,North,0,0.0,0.0,65,0.00,CLR,,0.00,WeatherDisplay:10.37,2013-03-06 06:02:00,
2013-03-05 22:06:00,24.8,14.7,29.60,North,0,0.0,0.0,65,0.00,CLR,,0.00,WeatherDisplay:10.37,2013-03-06 06:06:00,
2013-03-05 22:07:00,24.8,14.7,29.60,North,0,0.0,0.0,65,0.00,CLR,,0.00,WeatherDisplay:10.37,2013-03-06 06:07:00,
2013-03-05 22:11:00,24.8,14.7,29.60,North,0,0.0,0.0,65,0.00,CLR,,0.00,WeatherDisplay:10.37,2013-03-06 06:11:00,
2013-03-05 22:12:00,24.8,14.7,29.60,North,0,0.0,0.0,65,0.00,CLR,,0.00,WeatherDisplay:10.37,2013-03-06 06:12:00,
2013-03-05 22:16:00,24.8,14.7,29.60,North,0,0.0,0.0,65,0.00,CLR,,0.00,WeatherDisplay:10.37,2013-03-06 06:16:00,
2013-03-05 22:17:00,24.8,14.7,29.60,North,0,0.0,0.0,65,0.00,CLR,,0.00,WeatherDisplay:10.37,2013-03-06 06:17:00,
2013-03-05 22:18:00,24.8,14.7,29.60,North,0,0.0,0.0,65,0.00,CLR,,0.00,WeatherDisplay:10.37,2013-03-06 06:18:00,
2013-03-05 22:21:00,24.8,14.7,29.60,North,0,0.0,0.0,65,0.00,CLR,,0.00,WeatherDisplay:10.37,2013-03-06 06:21:00,
2013-03-05 22:22:00,24.8,14.7,29.60,North,0,0.0,0.0,65,0.00,CLR,,0.00,WeatherDisplay:10.37,2013-03-06 06:22:00,
2013-03-05 22:23:00,24.8,14.7,29.60,North,0,0.0,0.0,65,0.00,CLR,,0.00,WeatherDisplay:10.37,2013-03-06 06:23:00,
2013-03-05 22:27:00,24.8,14.7,29.60,North,0,0.0,0.0,65,0.00,CLR,,0.00,WeatherDisplay:10.37,2013-03-06 06:27:00,
2013-03-05 22:28:00,24.8,14.7,29.60,North,0,0.0,0.0,65,0.00,CLR,,0.00,WeatherDisplay:10.37,2013-03-06 06:28:00,
2013-03-05 22:32:00,24.8,14.7,29.60,North,0,0.0,0.0,65,0.00,CLR,,0.00,WeatherDisplay:10.37,2013-03-06 06:32:00,
2013-03-05 22:33:00,24.8,14.7,29.60,North,0,0.0,0.0,65,0.00,CLR,,0.00,WeatherDisplay:10.37,2013-03-06 06:33:00,
2013-03-05 22:37:00,24.8,14.7,29.60,North,0,0.0,0.0,65,0.00,CLR,,0.00,WeatherDisplay:10.37,2013-03-06 06:37:00,
2013-03-05 22:38:00,24.8,14.7,29.60,North,0,0.0,0.0,65,0.00,CLR,,0.00,WeatherDisplay:10.37,2013-03-06 06:38:00,
2013-03-05 22:42:00,24.8,14.7,29.60,North,0,0.0,0.0,65,0.00,CLR,,0.00,WeatherDisplay:10.37,2013-03-06 06:42:00,
2013-03-05 22:43:00,24.8,14.7,29.60,North,0,0.0,0.0,65,0.00,CLR,,0.00,WeatherDisplay:10.37,2013-03-06 06:43:00,
2013-03-05 22:47:00,24.8,14.7,29.60,North,0,0.0,0.0,65,0.00,CLR,,0.00,WeatherDisplay:10.37,2013-03-06 06:47:00,
2013-03-05 22:48:00,24.8,14.7,29.60,North,0,0.0,0.0,65,0.00,CLR,,0.00,WeatherDisplay:10.37,2013-03-06 06:48:00,
2013-03-05 22:52:00,24.8,14.7,29.60,North,0,0.0,0.0,65,0.00,CLR,,0.00,WeatherDisplay:10.37,2013-03-06 06:52:00,
2013-03-05 22:53:00,24.8,14.7,29.60,North,0,0.0,0.0,65,0.00,CLR,,0.00,WeatherDisplay:10.37,2013-03-06 06:53:00,
2013-03-05 22:54:00,24.8,14.7,29.60,North,0,0.0,0.0,65,0.00,CLR,,0.00,WeatherDisplay:10.37,2013-03-06 06:54:00,
2013-03-05 22:57:00,24.8,14.7,29.60,North,0,0.0,0.0,65,0.00,CLR,,0.00,WeatherDisplay:10.37,2013-03-06 06:57:00,
2013-03-05 22:58:00,24.8,14.7,29.60,North,0,0.0,0.0,65,0.00,CLR,,0.00,WeatherDisplay:10.37,2013-03-06 06:58:00,
2013-03-05 22:59:00,24.8,14.7,29.60,North,0,0.0,0.0,65,0.00,CLR,,0.00,WeatherDisplay:10.37,2013-03-06 06:59:00,
2013-03-05 23:03:00,24.8,14.7,29.60,North,0,0.0,0.0,65,0.00,CLR,,0.00,WeatherDisplay:10.37,2013-03-06 07:03:00,
2013-03-05 23:04:00,24.8,14.7,29.60,North,0,0.0,0.0,65,0.00,CLR,,0.00,WeatherDisplay:10.37,2013-03-06 07:04:00,
2013-03-05 23:08:00,24.8,14.7,29.60,North,0,0.0,0.0,65,0.00,CLR,,0.00,WeatherDisplay:10.37,2013-03-06 07:08:00,
2013-03-05 23:09:00,24.8,14.7,29.60,North,0,0.0,0.0,65,0.00,CLR,,0.00,WeatherDisplay:10.37,2013-03-06 07:09:00,
2013-03-05 23:13:00,24.8,14.7,29.60,North,0,0.0,0.0,65,0.00,CLR,,0.00,WeatherDisplay:10.37,2013-03-06 07:13:00,
2013-03-05 23:14:00,24.8,14.7,29.60,North,0,0.0,0.0,65,0.00,CLR,,0.00,WeatherDisplay:10.37,2013-03-06 07:14:00,
2013-03-05 23:18:00,24.8,14.7,29.60,North,0,0.0,0.0,65,0.00,CLR,,0.00,WeatherDisplay:10.37,2013-03-06 07:18:00,
2013-03-05 23:19:00,24.8,14.7,29.60,North,0,0.0,0.0,65,0.00,CLR,,0.00,WeatherDisplay:10.37,2013-03-06 07:19:00,
2013-03-05 23:23:00,24.8,14.7,29.60,North,0,0.0,0.0,65,0.00,CLR,,0.00,WeatherDisplay:10.37,2013-03-06 07:23:00,
2013-03-05 23:24:00,24.8,14.7,29.60,North,0,0.0,0.0,65,0.00,CLR,,0.00,WeatherDisplay:10.37,2013-03-06 07:24:00,
2013-03-05 23:28:00,24.8,14.7,29.60,North,0,0.0,0.0,65,0.00,CLR,,0.00,WeatherDisplay:10.37,2013-03-06 07:28:00,
2013-03-05 23:29:00,24.8,14.7,29.60,North,0,0.0,0.0,65,0.00,CLR,,0.00,WeatherDisplay:10.37,2013-03-06 07:29:00,
2013-03-05 23:33:00,24.8,14.7,29.60,North,0,0.0,0.0,65,0.00,CLR,,0.00,WeatherDisplay:10.37,2013-03-06 07:33:00,
2013-03-05 23:34:00,24.8,14.7,29.60,North,0,0.0,0.0,65,0.00,CLR,,0.00,WeatherDisplay:10.37,2013-03-06 07:34:00,
2013-03-05 23:35:00,24.8,14.7,29.60,North,0,0.0,0.0,65,0.00,CLR,,0.00,WeatherDisplay:10.37,2013-03-06 07:35:00,